createdAt,value
2019-05-18T00:00:00.413Z,101788.72
2019-05-18T00:02:29.865Z,101791.88
2019-05-18T00:05:01.526Z,101786.64
2019-05-18T00:07:30.773Z,101782.69
2019-05-18T00:10:00.989Z,101776.52
2019-05-18T00:12:30.241Z,101779.54
2019-05-18T00:14:59.505Z,101776.09
2019-05-18T00:17:29.017Z,101779.67
2019-05-18T00:19:58.481Z,101782.78
2019-05-18T00:22:27.702Z,101770.02
2019-05-18T00:24:57.325Z,101776.56
2019-05-18T00:27:26.580Z,101776.62
2019-05-18T00:29:55.807Z,101781.46
2019-05-18T00:32:25.430Z,101777.55
2019-05-18T00:34:54.999Z,101774.41
2019-05-18T00:37:24.276Z,101775.30
2019-05-18T00:39:53.898Z,101774.06
2019-05-18T00:42:23.184Z,101768.37
2019-05-18T00:44:52.209Z,101772.80
2019-05-18T00:47:21.843Z,101763.98
2019-05-18T00:49:51.070Z,101760.41
2019-05-18T00:52:20.308Z,101751.99
2019-05-18T00:54:49.844Z,101752.80
2019-05-18T00:57:19.115Z,101758.02
2019-05-18T00:59:48.416Z,101749.17
2019-05-18T01:02:17.953Z,101750.02
2019-05-18T01:04:49.095Z,101736.28
2019-05-18T01:07:18.327Z,101732.63
2019-05-18T01:09:47.889Z,101735.88
2019-05-18T01:12:17.118Z,101742.61
2019-05-18T01:14:47.477Z,101742.34
2019-05-18T01:17:17.026Z,101744.41
2019-05-18T01:19:46.334Z,101748.78
2019-05-18T01:22:15.668Z,101752.31
2019-05-18T01:24:45.139Z,101748.83
2019-05-18T01:27:14.358Z,101747.98
2019-05-18T01:29:43.670Z,101753.67
2019-05-18T01:32:13.058Z,101747.94
2019-05-18T01:34:42.904Z,101747.42
2019-05-18T01:37:12.141Z,101741.11
2019-05-18T01:39:42.878Z,101740.55
2019-05-18T01:42:12.138Z,101744.31
2019-05-18T01:44:41.391Z,101744.68
2019-05-18T01:47:10.885Z,101742.89
2019-05-18T01:49:40.408Z,101739.74
2019-05-18T01:52:09.660Z,101738.14
2019-05-18T01:54:39.019Z,101741.95
2019-05-18T01:57:08.490Z,101747.48
2019-05-18T01:59:38.846Z,101747.80
2019-05-18T02:02:08.252Z,101739.27
2019-05-18T02:04:37.721Z,101742.70
2019-05-18T02:07:06.960Z,101743.39
2019-05-18T02:09:36.228Z,101745.87
2019-05-18T02:12:05.644Z,101749.20
2019-05-18T02:14:34.864Z,101742.88
2019-05-18T02:17:04.119Z,101748.41
2019-05-18T02:19:33.626Z,101739.56
2019-05-18T02:22:02.859Z,101739.05
2019-05-18T02:24:32.126Z,101738.94
2019-05-18T02:27:01.643Z,101733.99
2019-05-18T02:29:31.214Z,101729.15
2019-05-18T02:32:00.486Z,101727.42
2019-05-18T02:34:32.192Z,101733.25
2019-05-18T02:37:01.705Z,101724.63
2019-05-18T02:39:30.981Z,101729.67
2019-05-18T02:42:00.715Z,101720.14
2019-05-18T02:44:29.937Z,101720.25
2019-05-18T02:46:59.197Z,101725.61
2019-05-18T02:49:28.579Z,101723.08
2019-05-18T02:51:57.827Z,101727.55
2019-05-18T02:54:27.117Z,101720.28
2019-05-18T02:56:56.435Z,101723.91
2019-05-18T02:59:25.711Z,101722.69
2019-05-18T03:01:54.976Z,101718.78
2019-05-18T03:04:25.497Z,101718.41
2019-05-18T03:06:55.215Z,101712.25
2019-05-18T03:09:24.451Z,101706.14
2019-05-18T03:11:54.051Z,101706.62
2019-05-18T03:14:23.379Z,101709.41
2019-05-18T03:16:52.722Z,101710.87
2019-05-18T03:19:22.087Z,101711.44
2019-05-18T03:21:51.371Z,101709.70
2019-05-18T03:24:20.627Z,101709.23
2019-05-18T03:26:50.040Z,101715.29
2019-05-18T03:29:19.339Z,101714.20
2019-05-18T03:31:48.649Z,101708.73
2019-05-18T03:34:18.126Z,101706.84
2019-05-18T03:36:47.551Z,101713.80
2019-05-18T03:39:16.822Z,101713.89
2019-05-18T03:41:46.123Z,101704.47
2019-05-18T03:44:15.446Z,101701.19
2019-05-18T03:46:44.681Z,101701.80
2019-05-18T03:49:25.991Z,101696.80
2019-05-18T03:51:45.130Z,101703.95
2019-05-18T03:54:16.744Z,101699.30
2019-05-18T03:56:46.078Z,101701.59
2019-05-18T03:59:15.302Z,101702.88
2019-05-18T04:01:44.692Z,101692.80
2019-05-18T04:04:17.914Z,101693.41
2019-05-18T04:06:45.068Z,101700.61
2019-05-18T04:09:15.843Z,101695.76
2019-05-18T04:11:45.090Z,101693.97
2019-05-18T04:14:14.439Z,101694.06
2019-05-18T04:16:43.720Z,101695.56
2019-05-18T04:19:12.937Z,101694.80
2019-05-18T04:21:42.629Z,101698.00
2019-05-18T04:24:11.880Z,101693.33
2019-05-18T04:26:41.139Z,101693.55
2019-05-18T04:29:10.656Z,101690.48
2019-05-18T04:31:39.925Z,101695.80
2019-05-18T04:34:09.159Z,101698.62
2019-05-18T04:36:38.951Z,101696.07
2019-05-18T04:39:08.224Z,101693.90
2019-05-18T04:41:38.022Z,101694.87
2019-05-18T04:44:07.456Z,101686.24
2019-05-18T04:46:36.755Z,101683.69
2019-05-18T04:49:07.088Z,101682.08
2019-05-18T04:51:36.481Z,101685.22
2019-05-18T04:54:06.870Z,101677.43
2019-05-18T04:56:36.201Z,101668.67
2019-05-18T04:59:05.718Z,101666.58
2019-05-18T05:01:35.029Z,101655.64
2019-05-18T05:04:05.204Z,101653.44
2019-05-18T05:06:34.433Z,101648.28
2019-05-18T05:09:05.647Z,101653.33
2019-05-18T05:11:34.968Z,101652.62
2019-05-18T05:14:05.473Z,101657.23
2019-05-18T05:16:34.754Z,101648.81
2019-05-18T05:19:04.308Z,101648.81
2019-05-18T05:21:33.518Z,101647.36
2019-05-18T05:24:02.760Z,101644.91
2019-05-18T05:26:32.101Z,101648.05
2019-05-18T05:29:01.342Z,101652.08
2019-05-18T05:31:30.637Z,101640.73
2019-05-18T05:34:01.478Z,101631.05
2019-05-18T05:36:30.733Z,101624.91
2019-05-18T05:39:02.708Z,101622.67
2019-05-18T05:41:31.936Z,101633.73
2019-05-18T05:44:01.308Z,101633.34
2019-05-18T05:46:30.807Z,101640.05
2019-05-18T05:49:00.032Z,101631.44
2019-05-18T05:51:29.282Z,101633.42
2019-05-18T05:53:58.913Z,101639.80
2019-05-18T05:56:28.153Z,101638.11
2019-05-18T05:58:57.464Z,101640.89
2019-05-18T06:01:26.916Z,101626.87
2019-05-18T06:03:56.149Z,101631.77
2019-05-18T06:06:25.383Z,101636.13
2019-05-18T06:08:55.128Z,101640.19
2019-05-18T06:11:24.533Z,101642.34
2019-05-18T06:13:54.086Z,101638.31
2019-05-18T06:16:23.531Z,101634.15
2019-05-18T06:18:53.907Z,101634.02
2019-05-18T06:21:23.158Z,101639.70
2019-05-18T06:23:52.662Z,101632.66
2019-05-18T06:26:24.241Z,101631.41
2019-05-18T06:28:52.998Z,101633.63
2019-05-18T06:31:23.219Z,101624.67
2019-05-18T06:33:52.956Z,101648.55
2019-05-18T06:36:22.276Z,101644.72
2019-05-18T06:38:51.525Z,101643.95
2019-05-18T06:41:20.753Z,101644.52
2019-05-18T06:43:50.137Z,101649.47
2019-05-18T06:46:19.554Z,101643.85
2019-05-18T06:48:48.776Z,101657.69
2019-05-18T06:51:18.245Z,101650.73
2019-05-18T06:53:48.828Z,101652.59
2019-05-18T06:56:18.710Z,101652.67
2019-05-18T06:58:49.074Z,101651.97
2019-05-18T07:01:19.209Z,101642.97
2019-05-18T07:03:48.474Z,101644.03
2019-05-18T07:06:18.155Z,101646.41
2019-05-18T07:08:47.687Z,101651.41
2019-05-18T07:11:16.910Z,101642.66
2019-05-18T07:13:46.425Z,101639.61
2019-05-18T07:16:15.680Z,101630.83
2019-05-18T07:18:44.897Z,101634.86
2019-05-18T07:21:22.423Z,101635.83
2019-05-18T07:23:47.530Z,101643.03
2019-05-18T07:26:16.744Z,101645.83
2019-05-18T07:28:46.347Z,101637.61
2019-05-18T07:31:15.640Z,101642.52
2019-05-18T07:33:44.862Z,101649.19
2019-05-18T07:36:14.264Z,101642.16
2019-05-18T07:38:43.614Z,101639.63
2019-05-18T07:41:12.854Z,101626.67
2019-05-18T07:43:42.182Z,101625.50
2019-05-18T07:46:12.324Z,101629.27
2019-05-18T07:48:41.554Z,101625.80
2019-05-18T07:51:10.956Z,101634.19
2019-05-18T07:53:40.207Z,101623.27
2019-05-18T07:56:09.423Z,101629.15
2019-05-18T07:58:41.417Z,101627.72
2019-05-18T08:01:10.669Z,101628.86
2019-05-18T08:03:39.903Z,101624.16
2019-05-18T08:06:09.310Z,101627.79
2019-05-18T08:08:38.631Z,101625.17
2019-05-18T08:11:07.810Z,101618.55
2019-05-18T08:13:37.119Z,101618.54
2019-05-18T08:16:06.464Z,101607.88
2019-05-18T08:18:35.938Z,101616.25
2019-05-18T08:21:05.265Z,101609.04
2019-05-18T08:23:34.518Z,101610.59
2019-05-18T08:26:03.842Z,101609.92
2019-05-18T08:28:33.139Z,101600.83
2019-05-18T08:31:02.744Z,101594.71
2019-05-18T08:33:32.375Z,101583.64
2019-05-18T08:36:01.835Z,101589.31
2019-05-18T08:38:31.112Z,101592.44
2019-05-18T08:41:00.333Z,101587.48
2019-05-18T08:43:29.658Z,101601.69
2019-05-18T08:46:00.103Z,101608.44
2019-05-18T08:48:29.318Z,101608.50
2019-05-18T08:51:01.222Z,101602.52
2019-05-18T08:53:30.482Z,101603.65
2019-05-18T08:56:00.950Z,101596.55
2019-05-18T08:58:30.307Z,101591.58
2019-05-18T09:00:59.591Z,101596.66
2019-05-18T09:03:28.826Z,101595.47
2019-05-18T09:05:58.161Z,101598.88
2019-05-18T09:08:27.509Z,101589.87
2019-05-18T09:10:56.758Z,101592.57
2019-05-18T09:13:26.197Z,101599.30
2019-05-18T09:15:55.517Z,101593.69
2019-05-18T09:18:24.882Z,101592.14
2019-05-18T09:20:54.574Z,101583.97
2019-05-18T09:23:23.849Z,101581.34
2019-05-18T09:25:53.091Z,101579.82
2019-05-18T09:28:23.329Z,101582.42
2019-05-18T09:30:52.960Z,101586.47
2019-05-18T09:33:22.193Z,101590.52
2019-05-18T09:35:51.537Z,101580.23
2019-05-18T09:38:20.806Z,101587.70
2019-05-18T09:40:50.048Z,101572.44
2019-05-18T09:43:19.448Z,101561.84
2019-05-18T09:45:48.779Z,101562.52
2019-05-18T09:48:18.005Z,101552.52
2019-05-18T09:50:47.689Z,101555.02
2019-05-18T09:53:16.972Z,101556.83
2019-05-18T09:55:46.241Z,101559.74
2019-05-18T09:58:16.187Z,101558.11
2019-05-18T10:00:45.532Z,101552.27
2019-05-18T10:03:17.961Z,101551.98
2019-05-18T10:05:48.130Z,101554.18
2019-05-18T10:08:17.414Z,101557.58
2019-05-18T10:10:46.714Z,101545.22
2019-05-18T10:13:16.058Z,101535.83
2019-05-18T10:15:45.330Z,101543.42
2019-05-18T10:18:14.903Z,101534.17
2019-05-18T10:20:44.380Z,101527.98
2019-05-18T10:23:14.095Z,101525.48
2019-05-18T10:25:45.798Z,101514.83
2019-05-18T10:28:15.018Z,101515.94
2019-05-18T10:30:44.351Z,101525.33
2019-05-18T10:33:13.672Z,101524.66
2019-05-18T10:35:42.919Z,101522.86
2019-05-18T10:38:12.233Z,101532.98
2019-05-18T10:40:41.537Z,101531.53
2019-05-18T10:43:10.770Z,101535.73
2019-05-18T10:45:44.293Z,101529.30
2019-05-18T10:48:11.241Z,101534.38
2019-05-18T10:50:40.510Z,101543.16
2019-05-18T10:53:09.822Z,101540.84
2019-05-18T10:55:39.194Z,101545.27
2019-05-18T10:58:08.445Z,101544.69
2019-05-18T11:00:37.770Z,101548.47
2019-05-18T11:03:09.067Z,101544.86
2019-05-18T11:05:38.322Z,101540.84
2019-05-18T11:08:07.655Z,101540.20
2019-05-18T11:10:36.959Z,101539.87
2019-05-18T11:13:06.211Z,101532.66
2019-05-18T11:15:35.525Z,101527.95
2019-05-18T11:18:04.966Z,101524.44
2019-05-18T11:20:34.352Z,101522.39
2019-05-18T11:23:04.346Z,101515.64
2019-05-18T11:25:33.765Z,101514.87
2019-05-18T11:28:02.989Z,101513.92
2019-05-18T11:30:32.630Z,101519.33
2019-05-18T11:33:01.998Z,101525.74
2019-05-18T11:35:31.237Z,101521.45
2019-05-18T11:38:00.505Z,101518.52
2019-05-18T11:40:30.003Z,101514.75
2019-05-18T11:42:59.282Z,101508.34
2019-05-18T11:45:28.831Z,101509.59
2019-05-18T11:47:58.158Z,101512.23
2019-05-18T11:50:27.853Z,101510.34
2019-05-18T11:52:57.112Z,101515.48
2019-05-18T11:55:26.619Z,101510.04
2019-05-18T11:57:55.845Z,101514.89
2019-05-18T12:00:26.000Z,101512.70
2019-05-18T12:02:55.582Z,101519.86
2019-05-18T12:05:24.877Z,101514.94
2019-05-18T12:07:54.143Z,101404.33
2019-05-18T12:10:24.266Z,101510.12
2019-05-18T12:12:53.584Z,101504.18
2019-05-18T12:15:23.391Z,101507.27
2019-05-18T12:17:52.778Z,101507.11
2019-05-18T12:20:22.720Z,101501.73
2019-05-18T12:22:52.097Z,101506.88
2019-05-18T12:25:21.552Z,101514.16
2019-05-18T12:27:50.824Z,101507.13
2019-05-18T12:30:21.491Z,101510.34
2019-05-18T12:32:51.037Z,101510.09
2019-05-18T12:35:20.395Z,101509.20
2019-05-18T12:37:49.708Z,101515.86
2019-05-18T12:40:21.794Z,101511.69
2019-05-18T12:42:51.016Z,101521.23
2019-05-18T12:45:22.550Z,101521.41
2019-05-18T12:47:51.862Z,101520.41
2019-05-18T12:50:32.791Z,101520.46
2019-05-18T12:53:02.173Z,101508.83
2019-05-18T12:55:31.917Z,101502.61
2019-05-18T12:58:01.282Z,101504.84
2019-05-18T13:00:30.852Z,101509.55
2019-05-18T13:03:00.083Z,101511.26
2019-05-18T13:05:29.651Z,101514.73
2019-05-18T13:07:59.855Z,101512.92
2019-05-18T13:10:29.217Z,101508.94
2019-05-18T13:12:59.315Z,101494.64
2019-05-18T13:15:28.553Z,101489.03
2019-05-18T13:17:57.998Z,101495.91
2019-05-18T13:20:27.345Z,101494.31
2019-05-18T13:22:56.627Z,101492.30
2019-05-18T13:25:26.085Z,101489.84
2019-05-18T13:27:55.540Z,101486.45
2019-05-18T13:30:24.929Z,101486.81
2019-05-18T13:32:54.511Z,101494.57
2019-05-18T13:35:23.780Z,101489.80
2019-05-18T13:37:53.012Z,101486.05
2019-05-18T13:40:22.836Z,101485.01
2019-05-18T13:42:52.078Z,101485.09
2019-05-18T13:45:21.700Z,101481.82
2019-05-18T13:47:50.985Z,101489.75
2019-05-18T13:50:20.447Z,101490.00
2019-05-18T13:52:49.950Z,101490.98
2019-05-18T13:55:21.993Z,101485.27
2019-05-18T13:57:51.316Z,101470.84
2019-05-18T14:00:21.767Z,101472.55
2019-05-18T14:02:51.097Z,101464.50
2019-05-18T14:05:20.419Z,101455.77
2019-05-18T14:07:49.693Z,101460.36
2019-05-18T14:10:19.850Z,101452.95
2019-05-18T14:12:50.133Z,101456.41
2019-05-18T14:15:22.574Z,101452.00
2019-05-18T14:17:50.503Z,101442.27
2019-05-18T14:20:19.901Z,101443.55
2019-05-18T14:22:49.123Z,101444.16
2019-05-18T14:25:20.368Z,101434.26
2019-05-18T14:27:49.639Z,101436.66
2019-05-18T14:30:19.466Z,101438.97
2019-05-18T14:32:49.066Z,101437.80
2019-05-18T14:35:18.438Z,101434.88
2019-05-18T14:37:47.738Z,101435.68
2019-05-18T14:40:17.664Z,101431.09
2019-05-18T14:42:46.930Z,101430.25
2019-05-18T14:45:16.369Z,101429.05
2019-05-18T14:47:45.789Z,101428.69
2019-05-18T14:50:17.343Z,101422.91
2019-05-18T14:52:47.055Z,101422.72
2019-05-18T14:55:16.484Z,101424.87
2019-05-18T14:57:45.759Z,101427.91
2019-05-18T15:00:15.668Z,101424.03
2019-05-18T15:02:44.899Z,101428.45
2019-05-18T15:05:14.644Z,101425.39
2019-05-18T15:07:44.088Z,101423.66
2019-05-18T15:10:13.806Z,101422.69
2019-05-18T15:12:43.067Z,101423.98
2019-05-18T15:15:12.899Z,101421.55
2019-05-18T15:17:42.133Z,101424.81
2019-05-18T15:20:13.560Z,101425.87
2019-05-18T15:22:43.069Z,101417.55
2019-05-18T15:25:13.013Z,101414.03
2019-05-18T15:27:42.273Z,101411.45
2019-05-18T15:30:12.811Z,101405.19
2019-05-18T15:32:42.478Z,101402.34
2019-05-18T15:35:11.932Z,101400.97
2019-05-18T15:37:43.565Z,101395.10
2019-05-18T15:40:12.769Z,101395.75
2019-05-18T15:42:42.208Z,101397.41
2019-05-18T15:45:13.056Z,101383.64
2019-05-18T15:47:42.333Z,101379.20
2019-05-18T15:50:12.519Z,101375.64
2019-05-18T15:52:41.750Z,101380.86
2019-05-18T15:55:11.392Z,101380.20
2019-05-18T15:57:40.937Z,101389.45
2019-05-18T16:00:10.986Z,101380.30
2019-05-18T16:02:40.210Z,101379.51
2019-05-18T16:05:10.476Z,101380.39
2019-05-18T16:07:39.713Z,101390.01
2019-05-18T16:10:09.350Z,101391.85
2019-05-18T16:12:38.980Z,101402.72
2019-05-18T16:15:08.848Z,101398.47
2019-05-18T16:17:39.814Z,101399.74
2019-05-18T16:20:11.560Z,101398.66
2019-05-18T16:22:44.116Z,101399.98
2019-05-18T16:25:12.285Z,101392.84
2019-05-18T16:27:41.521Z,101383.36
2019-05-18T16:30:11.038Z,101384.41
2019-05-18T16:32:40.566Z,101366.61
2019-05-18T16:35:10.951Z,101358.51
2019-05-18T16:37:40.204Z,101363.77
2019-05-18T16:40:10.526Z,101367.06
2019-05-18T16:42:39.963Z,101363.09
2019-05-18T16:45:09.837Z,101362.95
2019-05-18T16:47:39.147Z,101365.08
2019-05-18T16:50:09.224Z,101371.23
2019-05-18T16:52:38.452Z,101372.27
2019-05-18T16:55:09.385Z,101366.86
2019-05-18T16:57:38.675Z,101367.09
2019-05-18T17:00:09.801Z,101364.08
2019-05-18T17:02:39.521Z,101372.73
2019-05-18T17:05:09.583Z,101369.84
2019-05-18T17:07:38.858Z,101357.03
2019-05-18T17:10:08.957Z,101350.85
2019-05-18T17:12:38.233Z,101353.98
2019-05-18T17:15:08.753Z,101363.77
2019-05-18T17:17:38.185Z,101370.92
2019-05-18T17:20:07.856Z,101365.63
2019-05-18T17:22:37.085Z,101362.97
2019-05-18T17:25:06.905Z,101351.89
2019-05-18T17:27:36.189Z,101348.32
2019-05-18T17:30:05.857Z,101343.45
2019-05-18T17:32:35.624Z,101341.67
2019-05-18T17:35:06.118Z,101341.21
2019-05-18T17:37:35.452Z,101361.56
2019-05-18T17:40:05.677Z,101345.57
2019-05-18T17:42:34.933Z,101341.13
2019-05-18T17:45:04.280Z,101334.87
2019-05-18T17:47:33.782Z,101333.48
2019-05-18T17:50:03.087Z,101335.22
2019-05-18T17:52:32.316Z,101331.66
2019-05-18T17:55:01.882Z,101336.03
2019-05-18T17:57:31.170Z,101334.69
2019-05-18T18:00:00.396Z,101324.95
2019-05-18T18:02:29.889Z,101328.52
2019-05-18T18:04:59.169Z,101317.45
2019-05-18T18:07:28.383Z,101318.31
2019-05-18T18:09:57.991Z,101311.65
2019-05-18T18:12:27.379Z,101322.67
2019-05-18T18:14:56.592Z,101313.32
2019-05-18T18:17:27.030Z,101308.85
2019-05-18T18:19:56.311Z,101312.42
2019-05-18T18:22:25.850Z,101315.52
2019-05-18T18:24:55.331Z,101318.59
2019-05-18T18:27:27.792Z,101315.02
2019-05-18T18:29:55.626Z,101318.09
2019-05-18T18:32:25.014Z,101327.30
2019-05-18T18:34:54.238Z,101331.71
2019-05-18T18:37:23.489Z,101332.09
2019-05-18T18:39:55.442Z,101338.27
2019-05-18T18:42:24.969Z,101332.06
2019-05-18T18:44:54.553Z,101331.55
2019-05-18T18:47:25.879Z,101328.78
2019-05-18T18:49:55.393Z,101304.30
2019-05-18T18:52:24.620Z,101338.81
2019-05-18T18:54:53.860Z,101337.45
2019-05-18T18:57:38.523Z,101332.19
2019-05-18T18:59:57.094Z,101333.92
2019-05-18T19:02:26.419Z,101336.51
2019-05-18T19:04:55.672Z,101337.79
2019-05-18T19:07:24.930Z,101334.66
2019-05-18T19:09:54.328Z,101330.62
2019-05-18T19:12:23.598Z,101323.05
2019-05-18T19:14:52.830Z,101320.32
2019-05-18T19:17:22.219Z,101320.64
2019-05-18T19:19:51.557Z,101319.61
2019-05-18T19:22:20.795Z,101316.84
2019-05-18T19:24:50.298Z,101315.47
2019-05-18T19:27:19.545Z,101313.63
2019-05-18T19:29:48.859Z,101322.36
2019-05-18T19:32:18.255Z,101319.23
2019-05-18T19:34:47.494Z,101316.48
2019-05-18T19:37:16.766Z,101328.36
2019-05-18T19:39:46.114Z,101327.45
2019-05-18T19:42:15.560Z,101327.83
2019-05-18T19:44:44.794Z,101321.22
2019-05-18T19:47:14.122Z,101311.50
2019-05-18T19:49:45.427Z,101309.25
2019-05-18T19:52:14.680Z,101315.34
2019-05-18T19:54:44.473Z,101321.44
2019-05-18T19:57:13.807Z,101329.77
2019-05-18T19:59:43.064Z,101339.88
2019-05-18T20:02:12.403Z,101331.06
2019-05-18T20:04:41.660Z,101320.53
2019-05-18T20:07:10.881Z,101305.55
2019-05-18T20:09:40.262Z,101297.16
2019-05-18T20:12:10.994Z,101296.23
2019-05-18T20:14:40.221Z,101301.00
2019-05-18T20:17:09.547Z,101301.02
2019-05-18T20:19:39.874Z,101297.53
2019-05-18T20:22:09.254Z,101305.44
2019-05-18T20:24:38.736Z,101299.74
2019-05-18T20:27:08.006Z,101296.23
2019-05-18T20:29:37.223Z,101293.63
2019-05-18T20:32:06.735Z,101291.37
2019-05-18T20:34:36.101Z,101287.34
2019-05-18T20:37:05.620Z,101292.98
2019-05-18T20:39:35.302Z,101288.97
2019-05-18T20:42:04.676Z,101345.28
2019-05-18T20:44:34.004Z,101358.59
2019-05-18T20:47:03.646Z,101332.95
2019-05-18T20:49:32.920Z,101332.95
2019-05-18T20:52:02.146Z,101354.59
2019-05-18T20:54:31.482Z,101324.18
2019-05-18T20:57:02.119Z,101329.90
2019-05-18T20:59:31.792Z,101322.05
2019-05-18T21:02:01.134Z,101287.87
2019-05-18T21:04:30.385Z,101287.87
2019-05-18T21:07:01.020Z,101280.09
2019-05-18T21:09:30.635Z,101275.23
2019-05-18T21:11:59.923Z,101275.23
2019-05-18T21:14:29.150Z,101269.59
2019-05-18T21:16:58.842Z,101267.78
2019-05-18T21:19:29.981Z,101258.93
2019-05-18T21:21:59.252Z,101259.28
2019-05-18T21:24:28.574Z,101256.20
2019-05-18T21:26:57.890Z,101260.69
2019-05-18T21:29:27.113Z,101269.58
2019-05-18T21:31:56.435Z,101258.61
2019-05-18T21:34:25.804Z,101281.11
2019-05-18T21:36:55.033Z,101281.11
2019-05-18T21:39:25.936Z,101285.05
2019-05-18T21:41:55.479Z,101275.73
2019-05-18T21:44:24.705Z,101278.88
2019-05-18T21:46:54.317Z,101303.23
2019-05-18T21:49:23.728Z,101303.23
2019-05-18T21:51:53.216Z,101285.55
2019-05-18T21:54:23.220Z,101280.23
2019-05-18T21:56:52.475Z,101277.66
2019-05-18T21:59:21.720Z,101276.83
2019-05-18T22:01:51.154Z,101285.98
2019-05-18T22:04:20.401Z,101285.98
2019-05-18T22:06:49.638Z,101285.45
2019-05-18T22:09:19.045Z,101277.88
2019-05-18T22:11:48.320Z,101256.14
2019-05-18T22:14:17.563Z,101263.13
2019-05-18T22:16:46.897Z,101258.28
2019-05-18T22:19:16.169Z,101234.02
2019-05-18T22:21:45.434Z,101245.09
2019-05-18T22:24:15.051Z,101238.94
2019-05-18T22:26:44.337Z,101238.50
2019-05-18T22:29:13.599Z,101230.52
2019-05-18T22:31:44.691Z,101222.15
2019-05-18T22:34:14.062Z,101221.22
2019-05-18T22:36:43.358Z,101218.12
2019-05-18T22:39:14.713Z,101210.53
2019-05-18T22:41:43.972Z,101198.02
2019-05-18T22:44:13.307Z,101198.02
2019-05-18T22:46:42.589Z,101208.53
2019-05-18T22:49:11.973Z,101189.54
2019-05-18T22:51:41.189Z,101186.47
2019-05-18T22:54:10.515Z,101189.08
2019-05-18T22:56:39.755Z,101185.52
2019-05-18T22:59:09.004Z,101186.80
2019-05-18T23:01:38.575Z,101189.86
2019-05-18T23:04:07.833Z,101191.56
2019-05-18T23:06:37.064Z,101193.31
2019-05-18T23:09:07.774Z,101179.66
2019-05-18T23:11:37.355Z,101179.68
2019-05-18T23:14:06.604Z,101176.58
2019-05-18T23:16:36.077Z,101185.34
2019-05-18T23:19:05.540Z,101174.33
2019-05-18T23:21:34.819Z,101183.09
2019-05-18T23:24:04.307Z,101176.90
2019-05-18T23:26:33.571Z,101180.02
2019-05-18T23:29:02.819Z,101169.48
2019-05-18T23:31:32.212Z,101167.77
2019-05-18T23:34:01.565Z,101174.34
2019-05-18T23:36:30.854Z,101168.55
2019-05-18T23:39:03.053Z,101164.56
2019-05-18T23:41:32.529Z,101162.28
2019-05-18T23:44:01.798Z,101156.04
2019-05-18T23:46:31.108Z,101156.42
2019-05-18T23:49:10.312Z,101163.00
2019-05-18T23:51:31.528Z,101161.63
2019-05-18T23:54:00.964Z,101163.30
2019-05-18T23:56:30.608Z,101159.24
2019-05-18T23:58:59.956Z,101152.11
